Main page
METAR-TAF:

METAR-TAF

Airports :

Kufra Airport

Kufra, Libya

latitude: 24-13N, longitude: 023-18E, elevation: 417 m

METAR: missing

Time: 09:24 (07:24 UTC)

Forecast

The report was made 20 hours and 24 minutes ago, at 11:00 UTC
Forecast valid from 25 at 12 UTC to 26 at 12 UTC
Wind 10 kt from the North/Northeast
Visibility 10 km or more
no clouds below 1500 m and no cumulonimbus

TAF: HLKF 251100Z 2512/2612 02010KT CAVOK

Weather observations and forecasts of more than 4000 airports (METAR and TAF reports).

The available stations are represented by yellow and red dots on the map.

Hover mouse over dot to see the name of the station.

Then click to see weather observations and forecasts.

To change the map : click on the green buttons with a black cross to zoom in, on the green button with a dash to zoom out, or on the green arrows for adjacent maps.


METAR-TAF: